createdAt,value
2022-11-20T00:01:29.771Z,87.90
2022-11-20T00:03:58.763Z,88.00
2022-11-20T00:06:27.171Z,88.00
2022-11-20T00:08:57.507Z,88.00
2022-11-20T00:11:26.303Z,87.90
2022-11-20T00:13:55.966Z,88.00
2022-11-20T00:16:25.128Z,88.10
2022-11-20T00:18:52.343Z,88.40
2022-11-20T00:21:24.676Z,88.30
2022-11-20T00:23:55.307Z,88.40
2022-11-20T00:26:23.403Z,88.40
2022-11-20T00:28:53.080Z,88.60
2022-11-20T00:31:20.312Z,88.60
2022-11-20T00:33:47.394Z,88.70
2022-11-20T00:36:20.083Z,88.60
2022-11-20T00:38:47.203Z,88.60
2022-11-20T00:41:16.317Z,88.40
2022-11-20T00:43:43.813Z,88.60
2022-11-20T00:46:16.054Z,88.60
2022-11-20T00:48:43.454Z,88.60
2022-11-20T00:51:12.102Z,88.50
2022-11-20T00:53:38.877Z,88.20
2022-11-20T00:56:08.065Z,88.50
2022-11-20T00:58:36.790Z,88.30
2022-11-20T01:01:18.355Z,89.10
2022-11-20T01:03:50.154Z,88.70
2022-11-20T01:06:18.781Z,88.60
2022-11-20T01:08:46.638Z,88.80
2022-11-20T01:11:16.441Z,88.80
2022-11-20T01:13:44.142Z,88.70
2022-11-20T01:16:19.682Z,88.70
2022-11-20T01:18:49.266Z,88.60
2022-11-20T01:21:20.304Z,88.90
2022-11-20T01:23:48.176Z,89.00
2022-11-20T01:26:18.300Z,88.80
2022-11-20T01:28:45.390Z,88.60
2022-11-20T01:31:27.266Z,88.50
2022-11-20T01:33:56.640Z,88.50
2022-11-20T01:36:24.783Z,88.60
2022-11-20T01:39:00.577Z,88.60
2022-11-20T01:41:47.885Z,88.80
2022-11-20T01:44:16.486Z,88.80
2022-11-20T01:47:01.811Z,89.10
2022-11-20T01:49:42.014Z,89.30
2022-11-20T01:52:19.989Z,89.60
2022-11-20T01:54:57.293Z,89.90
2022-11-20T01:57:26.370Z,90.00
2022-11-20T02:00:00.861Z,90.00
2022-11-20T02:02:28.434Z,90.00
2022-11-20T02:04:59.876Z,90.10
2022-11-20T02:07:26.855Z,90.20
2022-11-20T02:09:58.385Z,90.20
2022-11-20T02:12:44.448Z,90.20
2022-11-20T02:15:11.297Z,90.40
2022-11-20T02:17:38.593Z,90.30
2022-11-20T02:20:05.860Z,90.40
2022-11-20T02:22:39.683Z,90.50
2022-11-20T02:25:07.971Z,90.60
2022-11-20T02:27:35.240Z,90.60
2022-11-20T02:30:08.671Z,90.60
2022-11-20T02:32:37.301Z,90.60
2022-11-20T02:35:20.744Z,90.70
2022-11-20T02:37:54.108Z,90.70
2022-11-20T02:40:21.076Z,90.80
2022-11-20T02:42:47.857Z,90.70
2022-11-20T02:45:14.661Z,90.70
2022-11-20T02:47:41.462Z,90.70
2022-11-20T02:50:08.735Z,90.70
2022-11-20T02:52:35.577Z,90.80
2022-11-20T02:55:02.742Z,90.80
2022-11-20T02:57:29.583Z,90.80
2022-11-20T02:59:56.848Z,90.80
2022-11-20T03:02:23.667Z,90.80
2022-11-20T03:04:50.457Z,90.90
2022-11-20T03:07:17.436Z,90.90
2022-11-20T03:09:44.306Z,90.80
2022-11-20T03:12:11.145Z,90.90
2022-11-20T03:14:38.001Z,90.90
2022-11-20T03:17:04.765Z,90.90
2022-11-20T03:19:31.785Z,90.90
2022-11-20T03:21:58.650Z,90.90
2022-11-20T03:24:25.508Z,90.90
2022-11-20T03:26:52.351Z,90.90
2022-11-20T03:29:19.515Z,91.00
2022-11-20T03:31:46.709Z,91.00
2022-11-20T03:34:13.632Z,91.10
2022-11-20T03:36:42.028Z,91.10
2022-11-20T03:39:09.295Z,91.00
2022-11-20T03:41:41.489Z,91.00
2022-11-20T03:44:11.526Z,91.00
2022-11-20T03:46:38.803Z,91.10
2022-11-20T03:49:05.726Z,91.00
2022-11-20T03:51:35.293Z,91.20
2022-11-20T03:54:04.857Z,91.20
2022-11-20T03:56:34.700Z,91.20
2022-11-20T03:59:02.080Z,91.10
2022-11-20T04:01:35.329Z,91.30
2022-11-20T04:04:02.663Z,91.30
2022-11-20T04:06:31.816Z,91.30
2022-11-20T04:08:59.379Z,91.40
2022-11-20T04:11:30.710Z,91.40
2022-11-20T04:13:59.959Z,91.40
2022-11-20T04:16:29.587Z,91.30
2022-11-20T04:18:58.463Z,91.50
2022-11-20T04:21:26.224Z,91.50
2022-11-20T04:23:54.248Z,91.50
2022-11-20T04:26:22.113Z,91.40
2022-11-20T04:28:48.873Z,91.40
2022-11-20T04:31:18.127Z,91.30
2022-11-20T04:33:45.637Z,91.30
2022-11-20T04:36:20.552Z,91.30
2022-11-20T04:38:53.846Z,91.30
2022-11-20T04:41:31.638Z,91.20
2022-11-20T04:44:03.330Z,91.30
2022-11-20T04:46:32.142Z,91.20
2022-11-20T04:48:59.784Z,91.20
2022-11-20T04:51:27.354Z,91.10
2022-11-20T04:53:54.698Z,91.20
2022-11-20T04:56:21.683Z,91.20
2022-11-20T04:58:48.622Z,91.20
2022-11-20T05:01:18.270Z,91.30
2022-11-20T05:03:45.694Z,91.20
2022-11-20T05:06:18.153Z,91.10
2022-11-20T05:08:45.174Z,91.10
2022-11-20T05:11:14.704Z,91.10
2022-11-20T05:13:42.460Z,91.20
2022-11-20T05:16:15.324Z,91.20
2022-11-20T05:18:43.084Z,91.30
2022-11-20T05:21:11.596Z,91.10
2022-11-20T05:23:39.150Z,91.10
2022-11-20T05:26:07.805Z,91.10
2022-11-20T05:28:34.881Z,91.30
2022-11-20T05:31:17.330Z,91.20
2022-11-20T05:33:46.643Z,91.10
2022-11-20T05:36:15.403Z,91.10
2022-11-20T05:38:42.769Z,91.00
2022-11-20T05:41:12.370Z,91.00
2022-11-20T05:43:41.334Z,90.80
2022-11-20T05:46:10.207Z,90.90
2022-11-20T05:48:38.169Z,90.80
2022-11-20T05:51:07.273Z,90.80
2022-11-20T05:53:35.195Z,90.80
2022-11-20T05:56:22.292Z,90.80
2022-11-20T05:58:50.001Z,90.80
2022-11-20T06:01:20.776Z,90.80
2022-11-20T06:03:48.779Z,90.70
2022-11-20T06:06:16.749Z,90.70
2022-11-20T06:08:44.444Z,90.60
2022-11-20T06:11:13.206Z,90.60
2022-11-20T06:13:42.490Z,90.60
2022-11-20T06:16:11.491Z,90.60
2022-11-20T06:18:38.664Z,90.50
2022-11-20T06:21:09.176Z,90.50
2022-11-20T06:23:37.025Z,90.40
2022-11-20T06:26:12.314Z,90.40
2022-11-20T06:28:39.716Z,90.40
2022-11-20T06:31:08.328Z,90.60
2022-11-20T06:33:36.061Z,90.60
2022-11-20T06:36:07.444Z,90.70
2022-11-20T06:38:37.570Z,90.60
2022-11-20T06:41:06.089Z,90.70
2022-11-20T06:43:32.966Z,90.70
2022-11-20T06:46:00.420Z,90.80
2022-11-20T06:48:28.763Z,90.80
2022-11-20T06:50:56.016Z,90.70
2022-11-20T06:53:23.928Z,90.70
2022-11-20T06:55:51.902Z,90.80
2022-11-20T06:58:19.254Z,90.80
2022-11-20T07:00:46.351Z,90.80
2022-11-20T07:03:14.175Z,90.90
2022-11-20T07:05:41.742Z,90.90
2022-11-20T07:08:09.212Z,90.90
2022-11-20T07:10:37.214Z,90.90
2022-11-20T07:13:04.427Z,91.00
2022-11-20T07:15:31.581Z,91.00
2022-11-20T07:18:01.768Z,91.00
2022-11-20T07:20:29.210Z,91.00
2022-11-20T07:22:57.189Z,91.10
2022-11-20T07:25:28.934Z,91.20
2022-11-20T07:28:00.361Z,91.10
2022-11-20T07:30:31.074Z,91.20
2022-11-20T07:32:58.454Z,91.30
2022-11-20T07:35:26.226Z,91.40
2022-11-20T07:37:53.155Z,91.40
2022-11-20T07:40:20.789Z,91.40
2022-11-20T07:42:51.817Z,91.50
2022-11-20T07:45:19.381Z,91.60
2022-11-20T07:47:46.207Z,91.60
2022-11-20T07:50:14.123Z,91.50
2022-11-20T07:52:41.514Z,91.70
2022-11-20T07:55:09.502Z,91.60
2022-11-20T07:57:39.658Z,91.60
2022-11-20T08:00:10.205Z,91.70
2022-11-20T08:02:41.827Z,91.70
2022-11-20T08:05:10.564Z,91.80
2022-11-20T08:07:42.778Z,91.90
2022-11-20T08:10:12.206Z,91.90
2022-11-20T08:13:10.855Z,91.80
2022-11-20T08:15:39.327Z,91.80
2022-11-20T08:18:29.988Z,91.90
2022-11-20T08:20:55.936Z,92.00
2022-11-20T08:23:24.462Z,92.00
2022-11-20T08:25:52.533Z,91.90
2022-11-20T08:28:21.703Z,92.00
2022-11-20T08:30:49.869Z,92.00
2022-11-20T08:33:18.338Z,92.10
2022-11-20T08:35:45.219Z,92.20
2022-11-20T08:38:12.345Z,92.40
2022-11-20T08:40:39.127Z,92.40
2022-11-20T08:43:05.919Z,92.40
2022-11-20T08:45:35.055Z,92.50
2022-11-20T08:48:04.221Z,92.50
2022-11-20T08:50:34.928Z,92.50
2022-11-20T08:53:06.072Z,92.50
2022-11-20T08:55:33.492Z,92.60
2022-11-20T08:58:05.306Z,92.60
2022-11-20T09:00:33.436Z,92.80
2022-11-20T09:03:02.174Z,92.80
2022-11-20T09:05:29.733Z,92.90
2022-11-20T09:08:00.441Z,92.90
2022-11-20T09:10:28.658Z,92.90
2022-11-20T09:12:56.548Z,92.90
2022-11-20T09:15:24.891Z,92.90
2022-11-20T09:17:56.911Z,93.00
2022-11-20T09:20:24.243Z,93.10
2022-11-20T09:22:51.296Z,93.10
2022-11-20T09:25:18.750Z,93.20
2022-11-20T09:30:33.720Z,93.50
2022-11-20T09:33:00.762Z,93.50
2022-11-20T09:35:27.644Z,93.70
2022-11-20T09:37:54.449Z,93.60
2022-11-20T09:40:22.798Z,93.70
2022-11-20T09:43:19.305Z,93.70
2022-11-20T09:46:06.549Z,93.70
2022-11-20T09:48:33.296Z,93.70
2022-11-20T09:51:23.300Z,93.80
2022-11-20T09:54:02.555Z,94.00
2022-11-20T09:56:29.773Z,94.00
2022-11-20T09:59:01.130Z,94.10
2022-11-20T10:01:32.963Z,94.10
2022-11-20T10:04:17.845Z,94.10
2022-11-20T10:09:55.900Z,94.10
2022-11-20T10:12:25.247Z,94.20
2022-11-20T10:15:10.598Z,94.20
2022-11-20T10:17:58.585Z,94.30
2022-11-20T10:20:52.715Z,94.20
2022-11-20T10:23:39.736Z,94.40
2022-11-20T10:26:32.968Z,94.40
2022-11-20T10:29:19.764Z,94.80
2022-11-20T10:32:01.490Z,94.60
2022-11-20T10:34:38.352Z,94.70
2022-11-20T10:37:32.350Z,94.70
2022-11-20T10:40:22.682Z,94.70
2022-11-20T10:43:02.679Z,94.60
2022-11-20T10:45:46.658Z,94.50
2022-11-20T10:48:25.387Z,94.40
2022-11-20T10:51:26.387Z,94.40
2022-11-20T10:54:07.830Z,94.50
2022-11-20T10:56:46.871Z,94.40
2022-11-20T10:59:53.479Z,94.40
2022-11-20T11:02:25.563Z,94.40
2022-11-20T11:04:54.431Z,94.40
2022-11-20T11:07:39.228Z,94.30
2022-11-20T11:10:23.910Z,94.40
2022-11-20T11:12:50.786Z,94.20
2022-11-20T11:15:30.962Z,94.20
2022-11-20T11:17:58.213Z,94.10
2022-11-20T11:20:27.117Z,94.10
2022-11-20T11:22:57.323Z,94.10
2022-11-20T11:25:35.908Z,94.10
2022-11-20T11:28:05.740Z,94.00
2022-11-20T11:30:44.084Z,94.00
2022-11-20T11:33:13.307Z,94.00
2022-11-20T11:35:53.698Z,93.90
2022-11-20T11:38:35.283Z,93.90
2022-11-20T11:41:03.321Z,93.90
2022-11-20T11:43:54.836Z,93.80
2022-11-20T11:46:21.616Z,93.80
2022-11-20T11:49:18.687Z,93.80
2022-11-20T11:52:03.125Z,93.60
2022-11-20T11:54:47.828Z,93.60
2022-11-20T11:57:37.688Z,93.70
2022-11-20T12:00:13.187Z,93.60
2022-11-20T12:02:45.974Z,93.60
2022-11-20T12:05:27.064Z,93.30
2022-11-20T12:08:09.446Z,93.30
2022-11-20T12:10:39.005Z,93.40
2022-11-20T12:13:18.721Z,93.40
2022-11-20T12:15:48.457Z,93.40
2022-11-20T12:18:23.462Z,93.50
2022-11-20T12:21:11.343Z,93.50
2022-11-20T12:23:49.941Z,93.30
2022-11-20T12:26:42.784Z,93.30
2022-11-20T12:29:41.268Z,93.30
2022-11-20T12:32:16.840Z,93.30
2022-11-20T12:34:59.986Z,93.20
2022-11-20T12:37:38.668Z,93.20
2022-11-20T12:40:35.212Z,93.20
2022-11-20T12:43:42.877Z,93.20
2022-11-20T12:46:40.030Z,93.10
2022-11-20T12:49:30.467Z,93.10
2022-11-20T12:52:28.385Z,93.20
2022-11-20T12:55:17.069Z,93.20
2022-11-20T12:58:02.475Z,93.20
2022-11-20T13:00:31.860Z,93.20
2022-11-20T13:03:08.914Z,93.20
2022-11-20T13:06:02.930Z,93.10
2022-11-20T13:08:34.505Z,93.10
2022-11-20T13:11:07.516Z,93.00
2022-11-20T13:13:46.427Z,93.10
2022-11-20T13:16:38.206Z,93.20
2022-11-20T13:19:06.540Z,93.40
2022-11-20T13:21:42.976Z,93.80
2022-11-20T13:24:33.545Z,93.90
2022-11-20T13:27:06.023Z,94.00
2022-11-20T13:29:34.557Z,94.20
2022-11-20T13:32:14.504Z,94.10
2022-11-20T13:34:52.058Z,94.20
2022-11-20T13:37:35.138Z,94.30
2022-11-20T13:40:13.745Z,94.40
2022-11-20T13:42:43.619Z,94.30
2022-11-20T13:45:23.957Z,94.40
2022-11-20T13:47:52.780Z,94.50
2022-11-20T13:50:20.367Z,94.50
2022-11-20T13:53:11.439Z,94.60
2022-11-20T13:55:53.231Z,94.60
2022-11-20T13:58:33.517Z,94.50
2022-11-20T14:01:10.334Z,94.50
2022-11-20T14:04:04.591Z,94.50
2022-11-20T14:06:40.747Z,94.60
2022-11-20T14:09:13.823Z,94.60
2022-11-20T14:11:48.018Z,94.80
2022-11-20T14:14:18.658Z,94.90
2022-11-20T14:16:48.998Z,95.00
2022-11-20T14:19:21.865Z,95.20
2022-11-20T14:21:50.653Z,95.20
2022-11-20T14:24:23.345Z,95.30
2022-11-20T14:26:51.462Z,95.30
2022-11-20T14:29:20.928Z,95.40
2022-11-20T14:31:53.855Z,95.40
2022-11-20T14:34:27.510Z,95.40
2022-11-20T14:37:16.384Z,95.40
2022-11-20T14:39:53.764Z,95.40
2022-11-20T14:42:25.974Z,95.40
2022-11-20T14:44:56.474Z,95.50
2022-11-20T14:47:32.010Z,95.60
2022-11-20T14:50:02.638Z,95.60
2022-11-20T14:52:33.048Z,95.60
2022-11-20T14:55:00.695Z,95.60
2022-11-20T14:57:31.551Z,95.90
2022-11-20T15:00:13.379Z,95.60
2022-11-20T15:02:43.189Z,95.60
2022-11-20T15:05:10.171Z,95.60
2022-11-20T15:07:46.497Z,95.60
2022-11-20T15:10:25.128Z,95.70
2022-11-20T15:13:08.362Z,95.60
2022-11-20T15:15:51.412Z,95.80
2022-11-20T15:18:21.758Z,95.70
2022-11-20T15:20:52.012Z,95.60
2022-11-20T15:23:20.111Z,95.60
2022-11-20T15:25:49.585Z,95.70
2022-11-20T15:28:16.380Z,95.60
2022-11-20T15:30:43.206Z,95.60
2022-11-20T15:33:11.217Z,95.80
2022-11-20T15:35:40.418Z,95.80
2022-11-20T15:38:07.261Z,95.70
2022-11-20T15:40:34.116Z,95.70
2022-11-20T15:43:08.155Z,95.70
2022-11-20T15:45:40.332Z,95.70
2022-11-20T15:48:13.723Z,95.70
2022-11-20T15:50:50.645Z,95.60
2022-11-20T15:53:17.490Z,95.80
2022-11-20T15:55:44.332Z,95.50
2022-11-20T15:58:11.202Z,95.60
2022-11-20T16:00:38.000Z,95.60
2022-11-20T16:03:05.020Z,95.60
2022-11-20T16:05:31.984Z,95.70
2022-11-20T16:07:58.929Z,95.80
2022-11-20T16:10:25.992Z,95.80
2022-11-20T16:13:11.522Z,95.80
2022-11-20T16:15:47.556Z,95.80
2022-11-20T16:18:17.845Z,95.90
2022-11-20T16:20:46.523Z,95.90
2022-11-20T16:23:14.010Z,95.80
2022-11-20T16:25:40.998Z,95.90
2022-11-20T16:28:07.894Z,95.80
2022-11-20T16:30:35.402Z,95.80
2022-11-20T16:33:03.631Z,95.80
2022-11-20T16:35:31.472Z,95.80
2022-11-20T16:37:59.189Z,95.90
2022-11-20T16:40:26.455Z,96.00
2022-11-20T16:42:53.291Z,96.00
2022-11-20T16:45:24.857Z,96.00
2022-11-20T16:47:53.746Z,96.00
2022-11-20T16:50:20.781Z,96.00
2022-11-20T16:52:47.701Z,96.00
2022-11-20T16:55:14.608Z,96.10
2022-11-20T16:57:42.686Z,96.10
2022-11-20T17:00:10.147Z,96.20
2022-11-20T17:02:38.071Z,96.20
2022-11-20T17:05:17.470Z,96.20
2022-11-20T17:07:44.407Z,96.10
2022-11-20T17:10:11.370Z,96.20
2022-11-20T17:12:38.142Z,96.20
2022-11-20T17:15:05.392Z,96.20
2022-11-20T17:17:32.198Z,96.00
2022-11-20T17:19:58.973Z,96.00
2022-11-20T17:22:25.816Z,96.00
2022-11-20T17:24:52.582Z,96.00
2022-11-20T17:27:19.778Z,95.90
2022-11-20T17:29:46.560Z,95.90
2022-11-20T17:32:13.752Z,95.90
2022-11-20T17:34:40.874Z,96.00
2022-11-20T17:37:07.646Z,96.00
2022-11-20T17:39:34.495Z,96.00
2022-11-20T17:42:19.738Z,96.00
2022-11-20T17:44:47.433Z,96.00
2022-11-20T17:47:14.688Z,96.10
2022-11-20T17:49:41.702Z,96.00
2022-11-20T17:52:08.540Z,96.10
2022-11-20T17:54:35.349Z,96.10
2022-11-20T17:57:20.664Z,96.10
2022-11-20T17:59:47.418Z,96.10
2022-11-20T18:02:14.247Z,96.10
2022-11-20T18:04:41.164Z,96.20
2022-11-20T18:07:08.103Z,96.20
2022-11-20T18:09:35.018Z,96.20
2022-11-20T18:12:01.809Z,96.10
2022-11-20T18:14:36.542Z,96.10
2022-11-20T18:17:04.990Z,96.10
2022-11-20T18:19:37.573Z,96.20
2022-11-20T18:22:09.312Z,96.20
2022-11-20T18:24:37.220Z,96.10
2022-11-20T18:27:05.841Z,96.10
2022-11-20T18:29:33.218Z,96.10
2022-11-20T18:32:00.877Z,96.20
2022-11-20T18:34:27.869Z,96.20
2022-11-20T18:36:54.694Z,96.10
2022-11-20T18:39:21.838Z,96.00
2022-11-20T18:42:07.052Z,96.00
2022-11-20T18:44:52.332Z,96.00
2022-11-20T18:47:31.963Z,96.00
2022-11-20T18:50:01.255Z,96.10
2022-11-20T18:52:29.504Z,96.10
2022-11-20T18:54:58.827Z,96.10
2022-11-20T18:57:27.930Z,96.10
2022-11-20T18:59:56.218Z,96.00
2022-11-20T19:02:23.173Z,95.80
2022-11-20T19:04:53.014Z,95.80
2022-11-20T19:07:19.983Z,95.80
2022-11-20T19:09:52.493Z,95.80
2022-11-20T19:12:20.097Z,95.80
2022-11-20T19:14:47.355Z,95.80
2022-11-20T19:17:14.574Z,95.90
2022-11-20T19:19:41.521Z,96.00
2022-11-20T19:22:09.362Z,96.00
2022-11-20T19:24:36.173Z,96.10
2022-11-20T19:27:03.093Z,96.00
2022-11-20T19:29:30.637Z,96.00
2022-11-20T19:31:58.185Z,96.10
2022-11-20T19:34:26.073Z,96.10
2022-11-20T19:36:53.037Z,96.10
2022-11-20T19:39:19.947Z,96.10
2022-11-20T19:41:46.827Z,96.00
2022-11-20T19:44:15.870Z,96.10
2022-11-20T19:46:43.405Z,96.20
2022-11-20T19:49:12.897Z,96.20
2022-11-20T19:51:45.679Z,96.20
2022-11-20T19:54:13.212Z,96.30
2022-11-20T19:56:40.097Z,96.30
2022-11-20T19:59:06.919Z,96.30
2022-11-20T20:01:34.015Z,96.30
2022-11-20T20:04:02.657Z,96.20
2022-11-20T20:06:30.298Z,96.20
2022-11-20T20:08:59.159Z,96.20
2022-11-20T20:11:28.291Z,96.30
2022-11-20T20:13:56.429Z,96.30
2022-11-20T20:16:26.271Z,96.40
2022-11-20T20:18:58.358Z,96.30
2022-11-20T20:21:25.423Z,96.30
2022-11-20T20:23:56.431Z,96.40
2022-11-20T20:26:24.920Z,96.40
2022-11-20T20:28:51.862Z,96.40
2022-11-20T20:31:21.925Z,96.40
2022-11-20T20:33:48.921Z,96.50
2022-11-20T20:36:18.671Z,96.50
2022-11-20T20:38:54.956Z,96.50
2022-11-20T20:41:23.450Z,96.50
2022-11-20T20:44:09.253Z,96.50
2022-11-20T20:46:36.184Z,96.50
2022-11-20T20:49:03.051Z,96.60
2022-11-20T20:51:29.931Z,96.60
2022-11-20T20:53:57.104Z,96.60
2022-11-20T20:56:23.897Z,96.60
2022-11-20T20:58:50.692Z,96.60
2022-11-20T21:01:22.763Z,96.60
2022-11-20T21:03:49.726Z,96.70
2022-11-20T21:06:16.532Z,96.70
2022-11-20T21:08:44.592Z,96.70
2022-11-20T21:11:16.942Z,96.80
2022-11-20T21:13:44.679Z,96.90
2022-11-20T21:16:13.346Z,96.90
2022-11-20T21:18:40.481Z,96.90
2022-11-20T21:21:27.798Z,96.90
2022-11-20T21:23:54.613Z,96.90
2022-11-20T21:26:22.072Z,96.90
2022-11-20T21:28:50.071Z,97.00
2022-11-20T21:31:22.245Z,97.10
2022-11-20T21:33:50.828Z,97.00
2022-11-20T21:36:19.714Z,97.10
2022-11-20T21:38:47.114Z,97.10
2022-11-20T21:41:15.236Z,97.00
2022-11-20T21:43:45.693Z,97.00
2022-11-20T21:46:16.278Z,97.10
2022-11-20T21:48:45.365Z,97.00
2022-11-20T21:51:17.496Z,96.90
2022-11-20T21:53:45.358Z,97.00
2022-11-20T21:56:17.749Z,97.00
2022-11-20T21:58:47.773Z,97.10
2022-11-20T22:01:26.634Z,97.10
2022-11-20T22:03:57.160Z,97.00
2022-11-20T22:06:32.689Z,97.20
2022-11-20T22:09:00.221Z,97.20
2022-11-20T22:11:27.071Z,97.20
2022-11-20T22:14:12.674Z,97.20
2022-11-20T22:16:39.520Z,97.10
2022-11-20T22:19:07.304Z,97.20
2022-11-20T22:21:34.810Z,97.00
2022-11-20T22:24:01.678Z,97.20
2022-11-20T22:26:40.189Z,97.20
2022-11-20T22:29:07.930Z,97.10
2022-11-20T22:31:34.697Z,97.10
2022-11-20T22:34:02.557Z,97.00
2022-11-20T22:36:31.038Z,97.10
2022-11-20T22:38:58.597Z,97.00
2022-11-20T22:41:28.983Z,97.00
2022-11-20T22:44:07.460Z,97.10
2022-11-20T22:46:36.727Z,97.00
2022-11-20T22:49:06.636Z,96.90
2022-11-20T22:51:35.643Z,97.00
2022-11-20T22:54:05.739Z,97.00
2022-11-20T22:56:32.892Z,96.90
2022-11-20T22:58:59.654Z,97.00
2022-11-20T23:01:29.149Z,97.10
2022-11-20T23:03:58.370Z,97.00
2022-11-20T23:06:25.514Z,96.90
2022-11-20T23:08:53.241Z,96.90
2022-11-20T23:11:25.930Z,96.80
2022-11-20T23:14:04.454Z,96.90
2022-11-20T23:16:32.755Z,96.90
2022-11-20T23:19:05.740Z,96.90
2022-11-20T23:21:33.243Z,97.00
2022-11-20T23:24:00.358Z,97.00
2022-11-20T23:26:29.620Z,97.10
2022-11-20T23:28:58.350Z,97.00
2022-11-20T23:31:26.964Z,96.90
2022-11-20T23:33:54.250Z,97.00
2022-11-20T23:36:21.090Z,96.90
2022-11-20T23:38:48.075Z,97.00
2022-11-20T23:41:15.068Z,96.90
2022-11-20T23:43:41.903Z,96.80
2022-11-20T23:46:13.726Z,96.90
2022-11-20T23:48:43.255Z,96.80
2022-11-20T23:51:10.034Z,96.90
2022-11-20T23:53:36.906Z,96.90
2022-11-20T23:56:05.239Z,96.80
2022-11-20T23:58:37.859Z,96.80
